createdAt,value
2023-04-10T00:07:58.916Z,78.96
2023-04-10T00:09:20.255Z,78.94
2023-04-10T00:10:42.413Z,79.28
2023-04-10T00:12:04.096Z,79.15
2023-04-10T00:14:06.981Z,79.19
2023-04-10T00:15:51.170Z,79.13
2023-04-10T00:18:41.613Z,78.97
2023-04-10T00:20:05.306Z,79.04
2023-04-10T00:24:35.786Z,78.93
2023-04-10T00:26:12.049Z,79.26
2023-04-10T00:27:35.224Z,79.14
2023-04-10T00:29:28.143Z,79.30
2023-04-10T00:30:52.554Z,79.06
2023-04-10T00:32:34.444Z,79.26
2023-04-10T00:33:59.163Z,79.50
2023-04-10T00:35:21.544Z,79.27
2023-04-10T00:36:48.127Z,79.31
2023-04-10T00:38:21.652Z,79.16
2023-04-10T00:39:53.227Z,79.13
2023-04-10T00:41:17.097Z,79.19
2023-04-10T00:42:38.372Z,79.03
2023-04-10T00:44:02.308Z,79.07
2023-04-10T00:46:03.009Z,79.02
2023-04-10T00:47:47.440Z,79.02
2023-04-10T00:49:11.612Z,78.92
2023-04-10T00:50:34.737Z,78.96
2023-04-10T00:52:04.648Z,79.09
2023-04-10T00:53:37.546Z,79.01
2023-04-10T00:55:06.705Z,79.07
2023-04-10T00:57:51.752Z,79.13
2023-04-10T00:59:18.609Z,79.08
2023-04-10T01:00:41.224Z,79.18
2023-04-10T01:02:03.916Z,79.22
2023-04-10T01:03:25.716Z,79.30
2023-04-10T01:04:58.302Z,79.38
2023-04-10T01:06:31.386Z,79.41
2023-04-10T01:08:30.225Z,79.56
2023-04-10T01:10:17.138Z,79.64
2023-04-10T01:14:42.888Z,79.69
2023-04-10T01:16:11.751Z,79.39
2023-04-10T01:17:41.734Z,79.59
2023-04-10T01:19:11.137Z,79.56
2023-04-10T01:20:36.307Z,79.53
2023-04-10T01:22:01.599Z,79.52
2023-04-10T01:23:55.616Z,79.60
2023-04-10T01:25:39.733Z,79.48
2023-04-10T01:27:16.672Z,79.52
2023-04-10T01:29:00.965Z,79.53
2023-04-10T01:30:24.866Z,79.45
2023-04-10T01:31:53.731Z,79.49
2023-04-10T01:33:20.176Z,79.34
2023-04-10T01:34:46.943Z,79.41
2023-04-10T01:36:10.354Z,79.35
2023-04-10T01:37:35.898Z,79.62
2023-04-10T01:38:58.890Z,79.58
2023-04-10T01:41:03.233Z,79.53
2023-04-10T01:42:33.487Z,79.74
2023-04-10T01:43:58.279Z,79.48
2023-04-10T01:45:24.991Z,79.59
2023-04-10T01:46:49.629Z,79.53
2023-04-10T01:48:16.775Z,79.75
2023-04-10T01:49:44.742Z,79.52
2023-04-10T01:51:12.488Z,79.70
2023-04-10T01:52:34.740Z,79.69
2023-04-10T01:54:10.511Z,79.80
2023-04-10T01:55:32.702Z,79.82
2023-04-10T01:57:02.375Z,79.86
2023-04-10T01:58:26.910Z,79.90
2023-04-10T01:59:53.354Z,79.89
2023-04-10T02:01:29.036Z,79.92
2023-04-10T02:02:52.749Z,79.80
2023-04-10T02:04:14.023Z,79.96
2023-04-10T02:05:56.409Z,79.64
2023-04-10T02:07:29.032Z,79.74
2023-04-10T02:08:56.682Z,79.67
2023-04-10T02:10:22.754Z,79.63
2023-04-10T02:12:19.938Z,79.60
2023-04-10T02:13:41.924Z,79.29
2023-04-10T02:15:06.723Z,79.23
2023-04-10T02:16:30.018Z,79.20
2023-04-10T02:17:56.564Z,79.03
2023-04-10T02:19:24.565Z,79.14
2023-04-10T02:20:48.001Z,78.97
2023-04-10T02:22:13.878Z,79.02
2023-04-10T02:23:36.950Z,79.02
2023-04-10T02:24:59.118Z,78.99
2023-04-10T02:26:22.640Z,78.94
2023-04-10T02:27:45.252Z,78.60
2023-04-10T02:29:06.521Z,78.72
2023-04-10T02:30:33.141Z,78.81
2023-04-10T02:31:57.314Z,78.77
2023-04-10T02:33:25.834Z,78.91
2023-04-10T02:34:51.286Z,78.95
2023-04-10T02:36:19.469Z,78.70
2023-04-10T02:37:42.774Z,78.69
2023-04-10T02:39:06.351Z,78.73
2023-04-10T02:40:27.760Z,78.77
2023-04-10T02:42:10.202Z,78.59
2023-04-10T02:43:33.014Z,78.48
2023-04-10T02:44:58.108Z,78.53
2023-04-10T02:46:28.602Z,78.67
2023-04-10T02:47:50.240Z,78.59
2023-04-10T02:49:12.806Z,78.46
2023-04-10T02:50:35.218Z,78.50
2023-04-10T02:51:57.950Z,78.06
2023-04-10T02:53:29.861Z,78.36
2023-04-10T02:54:55.848Z,78.42
2023-04-10T02:56:20.029Z,78.28
2023-04-10T02:57:47.588Z,78.33
2023-04-10T02:59:09.721Z,78.31
2023-04-10T03:00:31.537Z,78.39
2023-04-10T03:04:06.536Z,78.25
2023-04-10T03:05:33.996Z,78.15
2023-04-10T03:06:58.534Z,78.35
2023-04-10T03:08:21.247Z,78.25
2023-04-10T03:09:42.205Z,78.13
2023-04-10T03:11:04.662Z,78.34
2023-04-10T03:12:29.758Z,78.30
2023-04-10T03:13:53.241Z,78.04
2023-04-10T03:15:16.381Z,78.23
2023-04-10T03:16:37.937Z,78.26
2023-04-10T03:18:03.830Z,78.11
2023-04-10T03:19:26.915Z,78.01
2023-04-10T03:20:49.797Z,78.27
2023-04-10T03:22:14.964Z,78.32
2023-04-10T03:23:37.353Z,78.30
2023-04-10T03:24:59.396Z,77.99
2023-04-10T03:26:24.274Z,78.30
2023-04-10T03:27:49.065Z,78.28
2023-04-10T03:29:11.562Z,78.26
2023-04-10T03:30:35.433Z,78.33
2023-04-10T03:31:58.573Z,78.54
2023-04-10T03:33:24.811Z,78.47
2023-04-10T03:37:55.872Z,78.26
2023-04-10T03:39:27.696Z,78.29
2023-04-10T03:43:56.088Z,78.35
2023-04-10T03:45:48.673Z,78.04
2023-04-10T03:47:12.361Z,78.06
2023-04-10T03:48:37.520Z,78.04
2023-04-10T03:50:00.201Z,78.01
2023-04-10T03:51:30.531Z,77.96
2023-04-10T03:53:11.786Z,77.81
2023-04-10T03:54:34.360Z,77.90
2023-04-10T03:56:27.860Z,77.94
2023-04-10T03:57:49.716Z,78.09
2023-04-10T03:59:19.370Z,77.81
2023-04-10T04:00:40.534Z,77.92
2023-04-10T04:05:45.020Z,77.68
2023-04-10T04:07:29.541Z,77.80
2023-04-10T04:10:29.279Z,77.99
2023-04-10T04:12:28.195Z,77.72
2023-04-10T04:13:57.842Z,78.12
2023-04-10T04:15:34.677Z,78.10
2023-04-10T04:17:12.101Z,78.18
2023-04-10T04:18:58.871Z,77.99
2023-04-10T04:20:49.830Z,78.03
2023-04-10T04:22:29.119Z,77.83
2023-04-10T04:24:01.142Z,77.78
2023-04-10T04:26:11.057Z,77.85
2023-04-10T04:27:59.073Z,77.75
2023-04-10T04:29:38.496Z,77.82
2023-04-10T04:31:12.574Z,77.92
2023-04-10T04:32:44.158Z,77.77
2023-04-10T04:35:32.933Z,77.55
2023-04-10T04:37:13.523Z,77.50
2023-04-10T04:38:58.246Z,77.56
2023-04-10T04:40:25.886Z,77.54
2023-04-10T04:42:07.851Z,77.48
2023-04-10T04:43:42.888Z,77.36
2023-04-10T04:45:31.815Z,77.24
2023-04-10T04:47:24.387Z,77.07
2023-04-10T04:49:02.815Z,76.97
2023-04-10T04:50:37.787Z,77.15
2023-04-10T04:52:09.485Z,76.91
2023-04-10T04:53:56.758Z,76.71
2023-04-10T04:55:38.194Z,76.69
2023-04-10T04:57:33.143Z,76.58
2023-04-10T04:58:58.580Z,76.72
2023-04-10T05:00:43.816Z,76.71
2023-04-10T05:02:44.630Z,76.42
2023-04-10T05:04:26.627Z,76.41
2023-04-10T05:06:21.870Z,76.40
2023-04-10T05:08:06.492Z,75.96
2023-04-10T05:09:57.188Z,75.98
2023-04-10T05:11:40.132Z,76.06
2023-04-10T05:13:34.407Z,75.78
2023-04-10T05:15:15.745Z,75.89
2023-04-10T05:17:08.482Z,75.68
2023-04-10T05:18:39.953Z,75.62
2023-04-10T05:20:38.019Z,75.56
2023-04-10T05:22:34.570Z,75.48
2023-04-10T05:24:29.603Z,75.50
2023-04-10T05:26:14.405Z,75.65
2023-04-10T05:27:54.784Z,75.64
2023-04-10T05:29:48.998Z,75.65
2023-04-10T05:31:35.722Z,75.38
2023-04-10T05:33:11.068Z,75.59
2023-04-10T05:35:27.294Z,75.53
2023-04-10T05:36:55.255Z,75.45
2023-04-10T05:38:37.685Z,75.48
2023-04-10T05:43:18.158Z,75.26
2023-04-10T05:44:56.180Z,75.29
2023-04-10T05:46:41.784Z,75.23
2023-04-10T05:48:21.058Z,75.21
2023-04-10T05:50:24.472Z,75.15
2023-04-10T05:52:06.964Z,75.46
2023-04-10T05:53:53.967Z,75.18
2023-04-10T05:55:38.519Z,74.78
2023-04-10T05:57:19.026Z,75.11
2023-04-10T05:59:00.218Z,74.87
2023-04-10T06:00:44.243Z,74.97
2023-04-10T06:02:39.584Z,74.60
2023-04-10T06:04:06.669Z,74.58
2023-04-10T06:05:32.366Z,74.48
2023-04-10T06:10:47.165Z,73.91
2023-04-10T06:12:14.824Z,73.83
2023-04-10T06:14:53.731Z,73.83
2023-04-10T06:19:15.332Z,73.43
2023-04-10T06:20:37.530Z,73.42
2023-04-10T06:22:02.367Z,73.00
2023-04-10T06:23:36.976Z,72.75
2023-04-10T06:25:08.138Z,73.14
2023-04-10T06:27:14.416Z,72.90
2023-04-10T06:28:38.135Z,72.77
2023-04-10T06:30:00.873Z,72.38
2023-04-10T06:34:31.261Z,71.88
2023-04-10T06:35:58.213Z,71.54
2023-04-10T06:37:20.995Z,71.42
2023-04-10T06:42:37.750Z,71.12
2023-04-10T06:46:59.926Z,70.41
2023-04-10T06:48:22.269Z,70.28
2023-04-10T06:49:53.583Z,70.11
2023-04-10T06:51:21.489Z,69.71
2023-04-10T06:52:46.304Z,69.70
2023-04-10T06:54:11.296Z,69.31
2023-04-10T06:55:33.522Z,68.96
2023-04-10T06:56:59.018Z,68.81
2023-04-10T06:58:21.209Z,68.51
2023-04-10T06:59:43.762Z,68.92
2023-04-10T07:01:09.275Z,68.48
2023-04-10T07:02:38.619Z,68.50
2023-04-10T07:04:01.081Z,68.41
2023-04-10T07:05:28.766Z,68.05
2023-04-10T07:06:53.015Z,68.39
2023-04-10T07:08:21.863Z,68.18
2023-04-10T07:09:45.266Z,68.11
2023-04-10T07:11:10.613Z,68.06
2023-04-10T07:12:46.419Z,67.76
2023-04-10T07:14:23.204Z,67.68
2023-04-10T07:15:52.920Z,67.82
2023-04-10T07:17:15.352Z,67.88
2023-04-10T07:18:42.801Z,67.68
2023-04-10T07:20:08.498Z,67.70
2023-04-10T07:21:33.274Z,67.53
2023-04-10T07:22:59.153Z,67.27
2023-04-10T07:24:22.053Z,67.03
2023-04-10T07:25:44.539Z,66.92
2023-04-10T07:28:47.091Z,67.14
2023-04-10T07:30:28.737Z,67.07
2023-04-10T07:32:05.917Z,67.20
2023-04-10T07:33:36.618Z,66.98
2023-04-10T07:34:59.270Z,66.95
2023-04-10T07:39:46.461Z,66.84
2023-04-10T07:41:35.688Z,66.61
2023-04-10T07:43:56.063Z,66.71
2023-04-10T07:47:48.698Z,65.51
2023-04-10T07:49:21.965Z,65.16
2023-04-10T07:50:44.511Z,64.63
2023-04-10T07:52:06.965Z,64.56
2023-04-10T07:53:33.353Z,63.86
2023-04-10T07:55:13.350Z,62.90
2023-04-10T08:00:00.661Z,62.67
2023-04-10T08:01:26.586Z,62.17
2023-04-10T08:12:59.142Z,56.63
2023-04-10T08:17:18.845Z,50.72
2023-04-10T08:19:07.621Z,49.63
2023-04-10T08:20:41.658Z,49.84
2023-04-10T08:22:06.972Z,47.48
2023-04-10T08:24:27.594Z,47.16
2023-04-10T08:28:25.762Z,47.08
2023-04-10T08:30:29.397Z,49.38
2023-04-10T08:31:55.428Z,48.78
2023-04-10T08:33:19.544Z,48.52
2023-04-10T08:34:42.362Z,48.41
2023-04-10T08:37:00.978Z,48.54
2023-04-10T08:38:32.980Z,48.17
2023-04-10T08:39:55.741Z,48.24
2023-04-10T08:41:21.548Z,48.32
2023-04-10T08:46:11.093Z,49.55
2023-04-10T08:47:39.307Z,48.91
2023-04-10T08:49:04.689Z,48.62
2023-04-10T08:53:22.543Z,42.66
2023-04-10T08:54:54.803Z,42.05
2023-04-10T08:59:37.083Z,41.20
2023-04-10T09:03:49.626Z,39.19
2023-04-10T09:06:03.021Z,38.36
2023-04-10T09:08:16.086Z,38.79
2023-04-10T09:10:53.912Z,37.79
2023-04-10T09:12:32.422Z,38.59
2023-04-10T09:13:57.018Z,38.94
2023-04-10T09:15:35.005Z,39.00
2023-04-10T09:17:22.867Z,39.18
2023-04-10T09:18:49.070Z,39.35
2023-04-10T09:20:29.787Z,39.66
2023-04-10T09:22:17.354Z,40.11
2023-04-10T09:23:54.041Z,40.46
2023-04-10T09:25:55.462Z,35.45
2023-04-10T09:27:39.692Z,31.96
2023-04-10T09:29:57.307Z,28.84
2023-04-10T09:31:33.543Z,26.67
2023-04-10T09:33:09.287Z,23.17
2023-04-10T09:37:41.289Z,23.84
2023-04-10T09:39:10.071Z,21.49
2023-04-10T09:40:42.584Z,21.59
2023-04-10T09:42:05.258Z,22.50
2023-04-10T09:43:28.885Z,21.93
2023-04-10T09:45:00.184Z,21.12
2023-04-10T09:49:32.978Z,20.45
2023-04-10T09:51:00.508Z,19.24
2023-04-10T09:52:23.608Z,17.93
2023-04-10T09:53:59.297Z,16.82
2023-04-10T09:55:21.915Z,15.85
2023-04-10T09:56:50.602Z,14.90
2023-04-10T09:58:17.236Z,14.17
2023-04-10T09:59:42.922Z,13.76
2023-04-10T10:01:05.996Z,13.58
2023-04-10T10:02:32.717Z,13.07
2023-04-10T10:03:57.381Z,12.33
2023-04-10T10:05:29.099Z,11.38
2023-04-10T10:06:51.638Z,11.10
2023-04-10T10:08:24.214Z,10.44
2023-04-10T10:09:57.036Z,10.26
2023-04-10T10:11:22.885Z,9.51
2023-04-10T10:12:53.013Z,10.22
2023-04-10T10:14:21.654Z,9.67
2023-04-10T10:15:57.247Z,9.73
2023-04-10T10:17:27.630Z,9.58
2023-04-10T10:19:06.378Z,9.60
2023-04-10T10:20:57.760Z,9.83
2023-04-10T10:22:21.580Z,10.21
2023-04-10T10:23:56.315Z,9.42
2023-04-10T10:25:21.491Z,9.60
2023-04-10T10:26:44.831Z,9.13
2023-04-10T10:28:07.425Z,9.31
2023-04-10T10:29:41.142Z,10.34
2023-04-10T10:31:05.364Z,10.44
2023-04-10T10:32:32.403Z,10.71
2023-04-10T10:33:56.589Z,11.57
2023-04-10T10:35:22.415Z,12.95
2023-04-10T10:36:54.622Z,13.79
2023-04-10T10:39:12.642Z,15.42
2023-04-10T10:40:56.437Z,16.44
2023-04-10T10:42:27.989Z,17.59
2023-04-10T10:44:02.740Z,18.70
2023-04-10T10:45:38.428Z,19.80
2023-04-10T10:47:22.699Z,20.28
2023-04-10T10:49:00.960Z,21.46
2023-04-10T10:50:53.962Z,23.18
2023-04-10T10:52:23.685Z,24.19
2023-04-10T10:53:46.540Z,24.71
2023-04-10T10:55:36.201Z,25.82
2023-04-10T10:57:02.092Z,26.61
2023-04-10T10:58:59.749Z,27.74
2023-04-10T11:00:25.509Z,28.50
2023-04-10T11:02:16.298Z,29.24
2023-04-10T11:03:39.314Z,30.01
2023-04-10T11:05:01.725Z,30.79
2023-04-10T11:06:52.672Z,31.33
2023-04-10T11:08:17.378Z,31.79
2023-04-10T11:10:20.366Z,32.34
2023-04-10T11:12:01.608Z,32.66
2023-04-10T11:13:24.895Z,32.84
2023-04-10T11:18:27.379Z,33.58
2023-04-10T11:20:01.243Z,34.01
2023-04-10T11:21:23.895Z,33.71
2023-04-10T11:23:12.132Z,33.63
2023-04-10T11:25:10.604Z,33.88
2023-04-10T11:26:52.942Z,33.60
2023-04-10T11:28:39.716Z,33.99
2023-04-10T11:30:09.059Z,34.16
2023-04-10T11:33:00.805Z,34.36
2023-04-10T11:34:27.160Z,34.65
2023-04-10T11:39:46.035Z,34.54
2023-04-10T11:49:37.822Z,35.55
2023-04-10T11:51:06.566Z,35.52
2023-04-10T11:53:15.073Z,36.46
2023-04-10T11:55:31.671Z,37.18
2023-04-10T11:57:02.611Z,37.89
2023-04-10T11:58:46.596Z,37.85
2023-04-10T12:00:16.440Z,37.70
2023-04-10T12:01:41.950Z,37.99
2023-04-10T12:03:06.582Z,38.06
2023-04-10T12:05:15.237Z,38.01
2023-04-10T12:06:45.978Z,38.36
2023-04-10T12:10:05.339Z,38.60
2023-04-10T12:11:28.950Z,38.42
2023-04-10T12:12:52.630Z,38.67
2023-04-10T12:14:15.161Z,38.36
2023-04-10T12:15:38.972Z,37.79
2023-04-10T12:17:05.699Z,37.73
2023-04-10T12:18:28.147Z,37.99
2023-04-10T12:19:52.932Z,37.86
2023-04-10T12:21:19.444Z,37.50
2023-04-10T12:22:48.394Z,37.09
2023-04-10T12:24:11.272Z,37.46
2023-04-10T12:31:34.307Z,37.85
2023-04-10T12:33:24.047Z,37.21
2023-04-10T12:33:33.757Z,38.18
2023-04-10T12:35:11.348Z,38.39
2023-04-10T12:43:50.413Z,39.84
2023-04-10T12:45:21.700Z,40.20
2023-04-10T12:46:44.729Z,40.53
2023-04-10T12:49:01.094Z,41.04
2023-04-10T12:50:59.971Z,41.15
2023-04-10T12:52:24.743Z,41.51
2023-04-10T12:53:51.402Z,41.87
2023-04-10T12:55:16.142Z,41.92
2023-04-10T12:56:48.623Z,42.62
2023-04-10T12:58:30.624Z,42.15
2023-04-10T13:00:22.738Z,41.96
2023-04-10T13:01:51.356Z,41.89
2023-04-10T13:03:13.740Z,42.04
2023-04-10T13:04:36.394Z,42.10
2023-04-10T13:06:00.414Z,42.09
2023-04-10T13:07:22.338Z,42.80
2023-04-10T13:08:46.771Z,42.44
2023-04-10T13:10:21.669Z,42.71
2023-04-10T13:13:52.954Z,42.96
2023-04-10T13:18:13.872Z,43.74
2023-04-10T13:19:36.478Z,43.91
2023-04-10T13:21:03.418Z,44.11
2023-04-10T13:22:31.136Z,44.36
2023-04-10T13:33:11.009Z,46.06
2023-04-10T13:34:36.333Z,46.05
2023-04-10T13:41:27.744Z,45.72
2023-04-10T13:46:08.990Z,45.37
2023-04-10T13:51:22.541Z,44.91
2023-04-10T13:52:46.560Z,45.46
2023-04-10T13:54:10.979Z,45.15
2023-04-10T13:55:33.536Z,45.08
2023-04-10T13:56:56.311Z,44.87
2023-04-10T13:58:18.728Z,45.18
2023-04-10T13:59:40.664Z,45.40
2023-04-10T14:01:07.027Z,45.32
2023-04-10T14:02:31.227Z,44.96
2023-04-10T14:03:55.103Z,44.78
2023-04-10T14:05:23.289Z,44.82
2023-04-10T14:06:45.576Z,44.56
2023-04-10T14:08:11.864Z,44.82
2023-04-10T14:09:36.413Z,44.86
2023-04-10T14:11:12.118Z,44.91
2023-04-10T14:12:47.722Z,44.70
2023-04-10T14:14:20.325Z,44.99
2023-04-10T14:15:57.639Z,44.93
2023-04-10T14:17:44.631Z,45.44
2023-04-10T14:19:30.519Z,45.88
2023-04-10T14:21:02.484Z,46.17
2023-04-10T14:23:06.323Z,46.25
2023-04-10T14:24:31.328Z,46.80
2023-04-10T14:25:56.502Z,46.81
2023-04-10T14:27:29.779Z,47.11
2023-04-10T14:28:55.347Z,47.27
2023-04-10T14:31:05.514Z,47.96
2023-04-10T14:32:37.429Z,48.10
2023-04-10T14:34:11.478Z,48.39
2023-04-10T16:54:56.096Z,54.48
2023-04-10T16:56:20.056Z,54.62
2023-04-10T16:58:08.456Z,54.91
2023-04-10T16:59:43.282Z,54.94
2023-04-10T17:01:28.196Z,54.96
2023-04-10T17:03:08.739Z,55.00
2023-04-10T17:04:34.412Z,55.07
2023-04-10T17:06:02.580Z,55.39
2023-04-10T17:07:30.508Z,55.38
2023-04-10T17:08:53.453Z,55.42
2023-04-10T17:10:18.431Z,55.80
2023-04-10T17:11:44.156Z,55.91
2023-04-10T17:13:14.648Z,56.09
2023-04-10T17:18:11.776Z,56.00
2023-04-10T17:19:44.986Z,55.91
2023-04-10T17:21:21.161Z,56.44
2023-04-10T17:22:50.917Z,56.44
2023-04-10T17:24:29.422Z,56.83
2023-04-10T17:32:40.133Z,56.78
2023-04-10T17:34:05.457Z,57.37
2023-04-10T17:35:30.804Z,57.50
2023-04-10T17:59:51.950Z,58.73
2023-04-10T18:01:34.116Z,59.33
2023-04-10T18:03:01.218Z,59.42
2023-04-10T18:09:03.895Z,59.47
2023-04-10T18:11:04.181Z,59.66
2023-04-10T18:12:57.122Z,59.81
2023-04-10T18:17:44.632Z,60.06
2023-04-10T18:20:21.013Z,60.26
2023-04-10T18:24:12.254Z,60.22
2023-04-10T18:25:37.513Z,60.59
2023-04-10T18:27:01.172Z,60.78
2023-04-10T18:29:21.025Z,60.91
2023-04-10T18:34:08.832Z,60.78
2023-04-10T18:35:45.704Z,60.93
2023-04-10T18:40:17.089Z,61.13
2023-04-10T18:41:43.942Z,61.34
2023-04-10T18:43:06.808Z,61.58
2023-04-10T18:54:14.155Z,61.48
2023-04-10T18:55:37.398Z,61.32
2023-04-10T18:57:23.973Z,61.98
2023-04-10T18:59:37.546Z,62.02
2023-04-10T19:01:13.296Z,62.10
2023-04-10T19:02:50.273Z,62.40
2023-04-10T19:04:51.603Z,62.67
2023-04-10T19:09:10.911Z,62.49
2023-04-10T19:10:37.770Z,62.80
2023-04-10T19:12:01.721Z,63.00
2023-04-10T19:13:28.472Z,63.09
2023-04-10T19:14:52.934Z,63.13
2023-04-10T19:17:01.996Z,63.25
2023-04-10T19:18:47.481Z,63.20
2023-04-10T19:20:59.509Z,63.14
2023-04-10T19:22:40.866Z,63.09
2023-04-10T19:24:10.431Z,63.16
2023-04-10T19:25:35.425Z,63.32
2023-04-10T19:26:57.865Z,63.43
2023-04-10T19:32:38.969Z,63.27
2023-04-10T19:34:22.016Z,62.86
2023-04-10T19:35:46.651Z,63.21
2023-04-10T19:37:22.010Z,63.49
2023-04-10T19:39:03.588Z,63.35
2023-04-10T19:40:26.212Z,63.54
2023-04-10T19:41:48.472Z,63.48
2023-04-10T19:43:21.185Z,63.74
2023-04-10T19:44:46.547Z,63.86
2023-04-10T19:46:08.820Z,63.80
2023-04-10T19:47:31.234Z,63.79
2023-04-10T19:48:54.887Z,63.88
2023-04-10T19:50:17.312Z,64.10
2023-04-10T19:51:40.130Z,63.97
2023-04-10T19:53:02.403Z,64.06
2023-04-10T19:54:27.008Z,64.07
2023-04-10T19:55:49.071Z,64.10
2023-04-10T19:57:14.236Z,64.11
2023-04-10T19:58:40.963Z,64.23
2023-04-10T20:00:24.933Z,64.13
2023-04-10T20:01:47.472Z,64.04
2023-04-10T20:03:18.144Z,64.16
2023-04-10T20:04:48.588Z,64.42
2023-04-10T20:06:13.025Z,64.22
2023-04-10T20:07:35.448Z,64.36
2023-04-10T20:09:01.584Z,64.40
2023-04-10T20:10:25.647Z,64.56
2023-04-10T20:11:51.532Z,64.47
2023-04-10T20:13:13.868Z,64.57
2023-04-10T20:14:36.446Z,64.55
2023-04-10T20:15:58.894Z,64.92
2023-04-10T20:17:53.463Z,64.45
2023-04-10T20:19:19.315Z,64.49
2023-04-10T20:20:44.886Z,64.86
2023-04-10T20:22:11.952Z,64.73
2023-04-10T20:23:34.581Z,64.61
2023-04-10T20:24:56.144Z,64.64
2023-04-10T20:26:44.951Z,64.68
2023-04-10T20:28:10.486Z,64.60
2023-04-10T20:30:52.344Z,64.80
2023-04-10T20:34:35.651Z,64.75
2023-04-10T20:39:31.884Z,64.84
2023-04-10T20:41:34.263Z,64.88
2023-04-10T20:45:40.741Z,64.96
2023-04-10T20:47:07.089Z,65.07
2023-04-10T20:48:48.384Z,65.14
2023-04-10T21:08:37.866Z,65.39
2023-04-10T21:10:06.453Z,65.39
2023-04-10T21:21:15.581Z,65.54
2023-04-10T21:22:58.750Z,65.99
2023-04-10T21:25:55.868Z,65.94
2023-04-10T21:36:31.697Z,65.91
2023-04-10T21:37:11.098Z,65.91
2023-04-10T21:38:35.605Z,66.24
2023-04-10T21:39:59.291Z,66.37
2023-04-10T22:58:29.299Z,67.86
2023-04-10T22:59:50.732Z,68.22
2023-04-10T23:01:13.676Z,68.44
2023-04-10T23:02:41.839Z,68.58
2023-04-10T23:04:14.429Z,68.70
2023-04-10T23:05:43.235Z,68.71
2023-04-10T23:07:04.502Z,68.65
2023-04-10T23:08:29.360Z,68.72
2023-04-10T23:09:51.224Z,68.81
2023-04-10T23:11:20.321Z,68.82
2023-04-10T23:12:43.662Z,68.64
2023-04-10T23:14:55.977Z,68.93
2023-04-10T23:16:44.110Z,68.81
2023-04-10T23:18:17.132Z,68.95
2023-04-10T23:19:40.056Z,68.84
2023-04-10T23:21:34.782Z,69.09
2023-04-10T23:23:12.237Z,69.00
2023-04-10T23:24:36.930Z,69.33
2023-04-10T23:26:02.935Z,69.13
2023-04-10T23:27:31.351Z,69.19
2023-04-10T23:28:56.361Z,69.33
2023-04-10T23:30:19.071Z,69.40
2023-04-10T23:31:41.792Z,69.32
2023-04-10T23:33:07.188Z,69.49
2023-04-10T23:36:38.555Z,69.45
2023-04-10T23:38:06.841Z,69.57
2023-04-10T23:39:31.031Z,69.63
2023-04-10T23:40:55.871Z,69.94
2023-04-10T23:42:21.390Z,69.80
2023-04-10T23:44:34.109Z,69.87
2023-04-10T23:46:05.210Z,69.58
2023-04-10T23:47:29.077Z,69.64
2023-04-10T23:48:54.687Z,69.84
2023-04-10T23:50:22.761Z,69.84
2023-04-10T23:52:59.569Z,70.01
2023-04-10T23:54:19.926Z,69.70
2023-04-10T23:55:40.898Z,69.79
2023-04-10T23:57:05.175Z,69.79
2023-04-10T23:58:32.882Z,70.05
2023-04-10T23:59:54.291Z,70.15
